地図

経路データ

SID SEASON NUMBER BASIN SUBBASIN NAME ISO_TIME NATURE LAT LON WMO_WIND WMO_PRES WMO_AGENCY TRACK_TYPE DIST2LAND LANDFALL IFLAG USA_AGENCY USA_ATCF_ID USA_LAT USA_LON USA_RECORD USA_STATUS USA_WIND USA_PRES USA_SSHS USA_R34_NE USA_R34_SE USA_R34_SW USA_R34_NW USA_R50_NE USA_R50_SE USA_R50_SW USA_R50_NW USA_R64_NE USA_R64_SE USA_R64_SW USA_R64_NW USA_POCI USA_ROCI USA_RMW USA_EYE TOKYO_LAT TOKYO_LON TOKYO_GRADE TOKYO_WIND TOKYO_PRES TOKYO_R50_DIR TOKYO_R50_LONG TOKYO_R50_SHORT TOKYO_R30_DIR TOKYO_R30_LONG TOKYO_R30_SHORT TOKYO_LAND CMA_LAT CMA_LON CMA_CAT CMA_WIND CMA_PRES HKO_LAT HKO_LON HKO_CAT HKO_WIND HKO_PRES NEWDELHI_LAT NEWDELHI_LON NEWDELHI_GRADE NEWDELHI_WIND NEWDELHI_PRES NEWDELHI_CI NEWDELHI_DP NEWDELHI_POCI REUNION_LAT REUNION_LON REUNION_TYPE REUNION_WIND REUNION_PRES REUNION_TNUM REUNION_CI REUNION_RMW REUNION_R34_NE REUNION_R34_SE REUNION_R34_SW REUNION_R34_NW REUNION_R50_NE REUNION_R50_SE REUNION_R50_SW REUNION_R50_NW REUNION_R64_NE REUNION_R64_SE REUNION_R64_SW REUNION_R64_NW BOM_LAT BOM_LON BOM_TYPE BOM_WIND BOM_PRES BOM_TNUM BOM_CI BOM_RMW BOM_R34_NE BOM_R34_SE BOM_R34_SW BOM_R34_NW BOM_R50_NE BOM_R50_SE BOM_R50_SW BOM_R50_NW BOM_R64_NE BOM_R64_SE BOM_R64_SW BOM_R64_NW BOM_ROCI BOM_POCI BOM_EYE BOM_POS_METHOD BOM_PRES_METHOD NADI_LAT NADI_LON NADI_CAT NADI_WIND NADI_PRES WELLINGTON_LAT WELLINGTON_LON WELLINGTON_WIND WELLINGTON_PRES DS824_LAT DS824_LON DS824_STAGE DS824_WIND DS824_PRES TD9636_LAT TD9636_LON TD9636_STAGE TD9636_WIND TD9636_PRES TD9635_LAT TD9635_LON TD9635_WIND TD9635_PRES TD9635_ROCI NEUMANN_LAT NEUMANN_LON NEUMANN_CLASS NEUMANN_WIND NEUMANN_PRES MLC_LAT MLC_LON MLC_CLASS MLC_WIND MLC_PRES USA_GUST BOM_GUST BOM_GUST_PER REUNION_GUST REUNION_GUST_PER USA_SEAHGT USA_SEARAD_NE USA_SEARAD_SE USA_SEARAD_SW USA_SEARAD_NW STORM_SPEED STORM_DIR
1952072S17042 1952 19 SI MM NOT_NAMED 1952-03-12 06:00:00 TS -16.9000 42.2000 main 192 192 O________OO___ jtwc_sh SH181952 -16.9000 42.2000 -1 -16.9000 42.2000 TC 25 -16.9000 42.2000 7 3 223
1952072S17042 1952 19 SI MM NOT_NAMED 1952-03-12 09:00:00 TS -17.0005 42.1001 main 199 196 P________PP___ SH181952 -17.0000 42.0900 -1 -17.0000 42.0900 TC 25 -17.0016 42.1204 7 3 222
1952072S17042 1952 19 SI MM NOT_NAMED 1952-03-12 12:00:00 TS -17.1008 42.0142 main 206 204 O________OP___ jtwc_sh SH181952 -17.1000 42.0000 -1 -17.1000 42.0000 TC 25 -17.1025 42.0426 7 2 216
1952072S17042 1952 19 SI MM NOT_NAMED 1952-03-12 15:00:00 TS -17.2007 41.9511 main 204 204 P________PP___ SH181952 -17.2000 41.9425 -1 -17.2000 41.9425 TC 30 -17.2022 41.9685 7 2 209
1952072S17042 1952 19 SI MM NOT_NAMED 1952-03-12 18:00:00 TS -17.3000 41.9000 main 213 212 O________OO___ jtwc_sh SH181952 -17.3000 41.9000 -1 -17.3000 41.9000 TC 35 -17.3000 41.9000 2 2 206
1952072S17042 1952 19 SI MM NOT_NAMED 1952-03-12 21:00:00 TS -17.3986 41.8462 main 223 222 P________PP___ SH181952 -17.4000 41.8500 -1 -17.4000 41.8500 TC 35 -17.3959 41.8387 2 2 206
1952072S17042 1952 19 SI MM NOT_NAMED 1952-03-13 00:00:00 TS -17.4975 41.7950 main 222 222 O________OP___ jtwc_sh SH181952 -17.5000 41.8000 -1 -17.5000 41.8000 TC 35 -17.4925 41.7850 2 2 205
1952072S17042 1952 19 SI MM NOT_NAMED 1952-03-13 03:00:00 TS -17.5976 41.7413 main 233 233 P________PP___ SH181952 -17.6000 41.7425 -1 -17.6000 41.7425 TC 35 -17.5928 41.7387 2 2 203
1952072S17042 1952 19 SI MM NOT_NAMED 1952-03-13 06:00:00 TS -17.7000 41.7000 main 234 234 O________OO___ jtwc_sh SH181952 -17.7000 41.7000 -1 -17.7000 41.7000 TC 35 -17.7000 41.7000 2 2 192
1952072S17042 1952 19 SI MM NOT_NAMED 1952-03-13 09:00:00 TS -17.8023 41.6906 main 235 235 P________PP___ SH181952 -17.7925 41.7000 -1 -17.7925 41.7000 TC 35 -17.8219 41.6718 2 2 181
1952072S17042 1952 19 SI MM NOT_NAMED 1952-03-13 12:00:00 TS -17.9167 41.6833 main 237 237 O________OP___ jtwc_sh SH181952 -17.9000 41.7000 -1 -17.9000 41.7000 TC 35 -17.9500 41.6499 2 3 188
1952072S17042 1952 19 SI MM NOT_NAMED 1952-03-13 15:00:00 TS -18.0594 41.6477 main 252 252 P________PP___ SH181952 -18.0500 41.6575 -1 -18.0500 41.6575 TC 35 -18.0781 41.6281 2 3 195
1952072S17042 1952 19 SI MM NOT_NAMED 1952-03-13 18:00:00 TS -18.2000 41.6000 main 253 253 O________OO___ jtwc_sh SH181952 -18.2000 41.6000 -1 -18.2000 41.6000 TC 35 -18.2000 41.6000 2 3 199
1952072S17042 1952 19 SI MM NOT_NAMED 1952-03-13 21:00:00 TS -18.3074 41.5510 main 253 253 P________PP___ SH181952 -18.3075 41.5500 -1 -18.3075 41.5500 TC 35 -18.3072 41.5531 2 2 205
1952072S17042 1952 19 SI MM NOT_NAMED 1952-03-14 00:00:00 TS -18.4025 41.5000 main 263 263 O________OP___ jtwc_sh SH181952 -18.4000 41.5000 -1 -18.4000 41.5000 TC 35 -18.4075 41.5000 2 2 208
1952072S17042 1952 19 SI MM NOT_NAMED 1952-03-14 03:00:00 TS -18.5014 41.4440 main 274 274 P________PP___ SH181952 -18.5000 41.4425 -1 -18.5000 41.4425 TC 35 -18.5041 41.4469 2 2 206
1952072S17042 1952 19 SI MM NOT_NAMED 1952-03-14 06:00:00 TS -18.6000 41.4000 main 275 275 O________OO___ jtwc_sh SH181952 -18.6000 41.4000 -1 -18.6000 41.4000 TC 35 -18.6000 41.4000 2 2 196
1952072S17042 1952 19 SI MM NOT_NAMED 1952-03-14 09:00:00 TS -18.6986 41.3892 main 276 276 P________PP___ SH181952 -18.7000 41.4000 -1 -18.7000 41.4000 TC 35 -18.6959 41.3678 2 2 183
1952072S17042 1952 19 SI MM NOT_NAMED 1952-03-14 12:00:00 TS -18.7975 41.3808 main 277 277 O________OP___ jtwc_sh SH181952 -18.8000 41.4000 -1 -18.8000 41.4000 TC 35 -18.7925 41.3425 2 2 190
1952072S17042 1952 19 SI MM NOT_NAMED 1952-03-14 15:00:00 TS -18.8976 41.3403 main 289 289 P________PP___ SH181952 -18.9000 41.3500 -1 -18.9000 41.3500 TC 35 -18.8928 41.3209 2 2 201
1952072S17042 1952 19 SI MM NOT_NAMED 1952-03-14 18:00:00 TS -19.0000 41.3000 main 292 292 O________OO___ jtwc_sh SH181952 -19.0000 41.3000 -1 -19.0000 41.3000 TC 35 -19.0000 41.3000 2 2 194
1952072S17042 1952 19 SI MM NOT_NAMED 1952-03-14 21:00:00 TS -19.1009 41.2890 main 294 294 P________PP___ SH181952 -19.0925 41.3000 -1 -19.0925 41.3000 TC 35 -19.1178 41.2669 2 2 0
1952072S17042 1952 19 SI MM NOT_NAMED 1952-03-15 00:00:00 TS -19.2142 41.2784 main 297 297 O________OP___ jtwc_sh SH181952 -19.2000 41.3000 -1 -19.2000 41.3000 TC 35 -19.2425 41.2351 2 3 193
1952072S17042 1952 19 SI MM NOT_NAMED 1952-03-15 03:00:00 TS -19.3570 41.2369 main 315 315 P________PP___ SH181952 -19.3500 41.2500 -1 -19.3500 41.2500 TC 35 -19.3709 41.2107 2 3 193
1952072S17042 1952 19 SI MM NOT_NAMED 1952-03-15 06:00:00 TS -19.5000 41.2000 main 317 312 O________OO___ jtwc_sh SH181952 -19.5000 41.2000 -1 -19.5000 41.2000 TC 35 -19.5000 41.2000 2 3 188
1952072S17042 1952 19 SI MM NOT_NAMED 1952-03-15 09:00:00 TS -19.6110 41.1949 main 312 305 P________PP___ SH181952 -19.6000 41.1850 -1 -19.6000 41.1850 TC 35 -19.6331 41.2146 2 2 0
1952072S17042 1952 19 SI MM NOT_NAMED 1952-03-15 12:00:00 TS -19.7217 41.2141 main 305 283 O________OP___ jtwc_sh SH181952 -19.7000 41.2000 -1 -19.7000 41.2000 TC 35 -19.7650 41.2424 2 3 166
1952072S17042 1952 19 SI MM NOT_NAMED 1952-03-15 15:00:00 TS -19.8631 41.2580 main 283 277 P________PP___ SH181952 -19.8500 41.2500 -1 -19.8500 41.2500 TC 35 -19.8894 41.2740 2 3 165
1952072S17042 1952 19 SI MM NOT_NAMED 1952-03-15 18:00:00 TS -20.0000 41.3000 main 277 271 O________OO___ jtwc_sh SH181952 -20.0000 41.3000 -1 -20.0000 41.3000 TC 35 -20.0000 41.3000 2 2 169
1952072S17042 1952 19 SI MM NOT_NAMED 1952-03-15 21:00:00 TS -20.1091 41.2898 main 271 265 P________PP___ SH181952 -20.1150 41.3075 -1 -20.1150 41.3075 TC 35 -20.0973 41.2545 2 2 192
1952072S17042 1952 19 SI MM NOT_NAMED 1952-03-16 00:00:00 TS -20.1932 41.2701 main 265 265 O________OP___ jtwc_sh SH181952 -20.2000 41.3000 -1 -20.2000 41.3000 TC 35 -20.1796 41.2102 2 2 192
1952072S17042 1952 19 SI MM NOT_NAMED 1952-03-16 03:00:00 TS -20.2590 41.2403 main 268 259 P________PP___ SH181952 -20.2649 41.2550 -1 -20.2649 41.2550 TC 35 -20.2471 41.2107 2 1 163
1952072S17042 1952 19 SI MM NOT_NAMED 1952-03-16 06:00:00 TS -20.3000 41.3000 main 259 241 O________OO___ jtwc_sh SH181952 -20.3000 41.3000 -1 -20.3000 41.3000 TC 35 -20.3000 41.3000 2 3 101
1952072S17042 1952 19 SI MM NOT_NAMED 1952-03-16 09:00:00 TS -20.3133 41.5490 main 241 206 P________PP___ SH181952 -20.3001 41.5476 -1 -20.3001 41.5476 TC 35 -20.3399 41.5518 2 6 92
1952072S17042 1952 19 SI MM NOT_NAMED 1952-03-16 12:00:00 TS -20.3219 41.8967 main 206 175 O________OP___ jtwc_sh SH181952 -20.3000 41.9000 -1 -20.3000 41.9000 TC 35 -20.3658 41.8900 2 7 94
1952072S17042 1952 19 SI MM NOT_NAMED 1952-03-16 15:00:00 TS -20.3613 42.2626 main 167 142 P________PP___ SH181952 -20.3501 42.2649 -1 -20.3501 42.2649 TC 35 -20.3837 42.2581 2 7 97
1952072S17042 1952 19 SI MM NOT_NAMED 1952-03-16 18:00:00 TS -20.4000 42.6000 main 142 122 O________OO___ jtwc_sh SH181952 -20.4000 42.6000 -1 -20.4000 42.6000 TC 35 -20.4000 42.6000 2 5 94
1952072S17042 1952 19 SI MM NOT_NAMED 1952-03-16 21:00:00 TS -20.3987 42.8298 main 122 103 P________PP___ SH181952 -20.3999 42.8226 -1 -20.3999 42.8226 TC 35 -20.3963 42.8443 2 4 90
1952072S17042 1952 19 SI MM NOT_NAMED 1952-03-17 00:00:00 TS -20.3991 43.0176 main 103 85 O________OP___ jtwc_sh SH181952 -20.4000 43.0000 -1 -20.4000 43.0000 TC 35 -20.3972 43.0529 2 4 94
1952072S17042 1952 19 SI MM NOT_NAMED 1952-03-17 03:00:00 TS -20.4265 43.2117 main 85 61 P________PP___ SH181952 -20.4275 43.2000 -1 -20.4275 43.2000 TC 35 -20.4245 43.2350 2 4 106
1952072S17042 1952 19 SI MM NOT_NAMED 1952-03-17 06:00:00 TS -20.5000 43.4000 main 61 38 O________OO___ jtwc_sh SH181952 -20.5000 43.4000 -1 -20.5000 43.4000 TC 35 -20.5000 43.4000 2 4 118
1952072S17042 1952 19 SI MM NOT_NAMED 1952-03-17 09:00:00 TS -20.6313 43.6169 main 38 10 P________PP___ SH181952 -20.6200 43.6150 -1 -20.6200 43.6150 TC 35 -20.6537 43.6206 2 5 130
1952072S17042 1952 19 SI MM NOT_NAMED 1952-03-17 12:00:00 TS -20.8183 43.8063 main 10 0 O________OP___ jtwc_sh SH181952 -20.8000 43.8000 -1 -20.8000 43.8000 TC 35 -20.8549 43.8190 2 5 143
1952072S17042 1952 19 SI MM NOT_NAMED 1952-03-17 15:00:00 TS -21.0545 43.9543 main 0 0 P________PP___ SH181952 -21.0425 43.9524 -1 -21.0425 43.9524 TC 35 -21.0787 43.9580 2 5 159
1952072S17042 1952 19 SI MM NOT_NAMED 1952-03-17 18:00:00 TS -21.3000 44.0000 main 0 0 O________OO___ jtwc_sh SH181952 -21.3000 44.0000 -1 -21.3000 44.0000 TC 35 -21.3000 44.0000 2 5 184
1952072S17042 1952 19 SI MM NOT_NAMED 1952-03-17 21:00:00 TS -21.5095 43.9035 main 0 0 P________PP___ SH181952 -21.5150 43.9026 -1 -21.5150 43.9026 TC 35 -21.4985 43.9053 2 5 215
1952072S17042 1952 19 SI MM NOT_NAMED 1952-03-18 00:00:00 TS -21.6959 43.7044 main 0 0 O________OP___ jtwc_sh SH181952 -21.7000 43.7000 -1 -21.7000 43.7000 TC 35 -21.6876 43.7133 2 5 229
1952072S17042 1952 19 SI MM NOT_NAMED 1952-03-18 03:00:00 TS -21.8627 43.4649 main 0 0 P________PP___ SH181952 -21.8650 43.4650 -1 -21.8650 43.4650 TC 35 -21.8579 43.4646 2 6 237
1952072S17042 1952 19 SI MM NOT_NAMED 1952-03-18 06:00:00 TS -22.0000 43.2000 main 10 10 O________OO___ jtwc_sh SH181952 -22.0000 43.2000 -1 -22.0000 43.2000 TC 35 -22.0000 43.2000 2 5 240
1952072S17042 1952 19 SI MM NOT_NAMED 1952-03-18 09:00:00 TS -22.1038 43.0214 main 23 23 P________PP___ SH181952 -22.1150 42.9425 -1 -22.1150 42.9425 TC 35 -22.0997 42.9778 2 3 236
1952072S17042 1952 19 SI MM NOT_NAMED 1952-03-18 12:00:00 TS -22.1927 42.8908 main 30 30 O________OP___ jtwc_sh SH181952 -22.2000 42.7000 -1 -22.2000 42.7000 TC 35 -22.1725 42.7496 2 3 228
1952072S17042 1952 19 SI MM NOT_NAMED 1952-03-18 15:00:00 TS -22.2846 42.8056 main 41 41 P________PP___ SH181952 -22.2499 42.4924 -1 -22.2499 42.4924 TC 35 -22.2341 42.5216 2 3 220
1952072S17042 1952 19 SI MM NOT_NAMED 1952-03-18 18:00:00 TS -22.4000 42.7000 main 52 52 O________OO___ jtwc_sh SH181952 -22.3000 42.3000 -1 -22.3000 42.3000 TC 35 -22.3000 42.3000 2 3 217
1952072S17042 1952 19 SI MM NOT_NAMED 1952-03-18 21:00:00 TS -22.5607 42.5825 main 70 70 P________PP___ SH181952 -22.3925 42.1000 -1 -22.3925 42.1000 TC 35 -22.3847 42.0765 2 4 210
1952072S17042 1952 19 SI MM NOT_NAMED 1952-03-19 00:00:00 TS -22.7494 42.4819 main 84 84 O________OP___ jtwc_sh SH181952 -22.5000 41.9000 -1 -22.5000 41.9000 TC 35 -22.4775 41.8625 2 4 204
1952072S17042 1952 19 SI MM NOT_NAMED 1952-03-19 03:00:00 TS -22.9467 42.3972 main 102 102 P________PP___ SH181952 -22.5925 41.6850 -1 -22.5925 41.6850 TC 35 -22.5816 41.6672 2 4 192
1952072S17042 1952 19 SI MM NOT_NAMED 1952-03-19 06:00:00 TS -23.1500 42.4000 main 107 107 O________OO___ jtwc_sh SH181952 -22.7000 41.5000 -1 -22.7000 41.5000 TC 35 -22.7000 41.5000 2 4 161
1952072S17042 1952 19 SI MM NOT_NAMED 1952-03-19 09:00:00 TS -23.3526 42.5513 main 102 84 P________PP___ SH181952 -22.8425 41.3850 -1 -22.8425 41.3850 TC 35 -22.8355 41.3671 2 5 138
1952072S17042 1952 19 SI MM NOT_NAMED 1952-03-19 12:00:00 TS -23.5495 42.7901 main 84 61 O________OP___ jtwc_sh SH181952 -23.0000 41.3000 -1 -23.0000 41.3000 TC 35 -22.9848 41.2624 2 6 130
1952072S17042 1952 19 SI MM NOT_NAMED 1952-03-19 15:00:00 TS -23.7358 43.0479 main 61 37 P________PP___ SH181952 -23.1500 41.2000 -1 -23.1500 41.2000 TC 35 -23.1418 41.1765 2 6 127
1952072S17042 1952 19 SI MM NOT_NAMED 1952-03-19 18:00:00 TS -23.9000 43.3000 main 37 20 O________OO___ jtwc_sh SH181952 -23.3000 41.1000 -1 -23.3000 41.1000 TC 35 -23.3000 41.1000 2 5 127
1952072S17042 1952 19 SI MM NOT_NAMED 1952-03-19 21:00:00 TS -24.0374 43.4936 main 20 20 P________PP___ SH181952 -23.4500 40.9925 -1 -23.4500 40.9925 TC 35 -23.4581 41.0016 2 2 189
1952072S17042 1952 19 SI MM NOT_NAMED 1952-03-20 00:00:00 TS -24.0749 43.2726 main 40 40 O________OP___ jtwc_sh SH181952 -23.6000 40.9000 -1 -23.6000 40.9000 TC 35 -23.6150 40.9126 2 6 265
1952072S17042 1952 19 SI MM NOT_NAMED 1952-03-20 03:00:00 TS -24.0921 42.8462 main 91 91 P________PP___ SH181952 -23.7575 40.8350 -1 -23.7575 40.8350 TC 35 -23.7644 40.8423 2 11 270
1952072S17042 1952 19 SI MM NOT_NAMED 1952-03-20 06:00:00 TS -24.0800 42.1000 main 158 158 O________OO___ jtwc_sh SH181952 -23.9000 40.8000 -1 -23.9000 40.8000 TC 35 -23.9000 40.8000 2 19 273
1952072S17042 1952 19 SI MM NOT_NAMED 1952-03-20 09:00:00 TS -24.0071 40.7901 main 286 286 P________PP___ SH181952 -24.0075 40.7850 -1 -24.0075 40.7850 TC 35 -24.0062 40.8002 2 12 269
1952072S17042 1952 19 SI MM NOT_NAMED 1952-03-20 12:00:00 TS -24.1000 40.8091 main 287 279 O________OP___ jtwc_sh SH181952 -24.1000 40.8000 -1 -24.1000 40.8000 TC 35 -24.1000 40.8273 2 2 163
1952072S17042 1952 19 SI MM NOT_NAMED 1952-03-20 15:00:00 TS -24.1929 40.8553 main 279 279 P________PP___ SH181952 -24.1925 40.8500 -1 -24.1925 40.8500 TC 35 -24.1937 40.8658 2 2 157
1952072S17042 1952 19 SI MM NOT_NAMED 1952-03-20 18:00:00 TS -24.3000 40.9000 main 282 282 O________OO___ jtwc_sh SH181952 -24.3000 40.9000 -1 -24.3000 40.9000 TC 35 -24.3000 40.9000 2 3 167
1952072S17042 1952 19 SI MM NOT_NAMED 1952-03-20 21:00:00 TS -24.4402 40.9182 main 284 284 P________PP___ SH181952 -24.4425 40.9075 -1 -24.4425 40.9075 TC 35 -24.4355 40.9394 2 3 175
1952072S17042 1952 19 SI MM NOT_NAMED 1952-03-21 00:00:00 TS -24.5949 40.9224 main 288 288 O________OP___ jtwc_sh SH181952 -24.6000 40.9000 -1 -24.6000 40.9000 TC 35 -24.5848 40.9671 2 3 0
1952072S17042 1952 19 SI MM NOT_NAMED 1952-03-21 03:00:00 TS -24.7472 40.9403 main 291 291 P________PP___ SH181952 -24.7500 40.9299 -1 -24.7500 40.9299 TC 35 -24.7417 40.9612 2 3 0
1952072S17042 1952 19 SI MM NOT_NAMED 1952-03-21 06:00:00 TS -24.9000 40.9000 main 294 294 O________OO___ jtwc_sh SH181952 -24.9000 40.9000 -1 -24.9000 40.9000 TC 35 -24.9000 40.9000 2 4 214
1952072S17042 1952 19 SI MM NOT_NAMED 1952-03-21 09:00:00 TS -25.0488 40.7138 main 315 315 P________PP___ SH181952 -25.0501 40.7301 -1 -25.0501 40.7301 TC 35 -25.0463 40.6812 2 5 233
1952072S17042 1952 19 SI MM NOT_NAMED 1952-03-21 12:00:00 TS -25.1976 40.4729 main 339 339 O________OP___ jtwc_sh SH181952 -25.2000 40.5000 -1 -25.2000 40.5000 TC 35 -25.1929 40.4189 2 5 237
1952072S17042 1952 19 SI MM NOT_NAMED 1952-03-21 15:00:00 TS -25.3427 40.2208 main 371 371 P________PP___ SH181952 -25.3425 40.2327 -1 -25.3425 40.2327 TC 35 -25.3430 40.1970 2 5 228
1952072S17042 1952 19 SI MM NOT_NAMED 1952-03-21 18:00:00 TS -25.5000 40.1000 main 385 372 O________OO___ jtwc_sh SH181952 -25.5000 40.1000 -1 -25.5000 40.1000 TC 35 -25.5000 40.1000 2 4 171
1952072S17042 1952 19 SI MM NOT_NAMED 1952-03-21 21:00:00 TS -25.6922 40.2771 main 372 352 P________PP___ SH181952 -25.7000 40.2747 -1 -25.7000 40.2747 TC 35 -25.6766 40.2819 2 6 131
1952072S17042 1952 19 SI MM NOT_NAMED 1952-03-22 00:00:00 TS -25.8862 40.5961 main 352 330 O________OP___ jtwc_sh SH181952 -25.9000 40.6000 -1 -25.9000 40.6000 TC 35 -25.8586 40.5883 2 7 122
1952072S17042 1952 19 SI MM NOT_NAMED 1952-03-22 03:00:00 TS -26.0555 40.9335 main 334 310 P________PP___ SH181952 -26.0652 40.9374 -1 -26.0652 40.9374 TC 35 -26.0361 40.9257 2 6 120
1952072S17042 1952 19 SI MM NOT_NAMED 1952-03-22 06:00:00 TS -26.2000 41.2000 main 310 306 O________OO___ jtwc_sh SH181952 -26.2000 41.2000 -1 -26.2000 41.2000 TC 35 -26.2000 41.2000 2 4 132
1952072S17042 1952 19 SI MM NOT_NAMED 1952-03-22 09:00:00 TS -26.3129 41.2566 main 306 306 P________PP___ SH181952 -26.2999 41.2452 -1 -26.2999 41.2452 TC 35 -26.3390 41.2796 2 2 0
1952072S17042 1952 19 SI MM NOT_NAMED 1952-03-22 12:00:00 TS -26.4215 41.2277 main 320 320 O________OP___ jtwc_sh SH181952 -26.4000 41.2000 -1 -26.4000 41.2000 TC 35 -26.4647 41.2832 2 3 188
1952072S17042 1952 19 SI MM NOT_NAMED 1952-03-22 15:00:00 TS -26.5610 41.2150 main 332 332 P________PP___ SH181952 -26.5500 41.2000 -1 -26.5500 41.2000 TC 35 -26.5829 41.2451 2 3 186
1952072S17042 1952 19 SI MM NOT_NAMED 1952-03-22 18:00:00 TS -26.7000 41.2000 main 338 338 O________OO___ jtwc_sh SH181952 -26.7000 41.2000 -1 -26.7000 41.2000 TC 35 -26.7000 41.2000 7 3 186
1952072S17042 1952 19 SI MM NOT_NAMED 1952-03-22 21:00:00 TS -26.8097 41.1987 main 344 344 P________PP___ SH181952 -26.8000 41.2000 -1 -26.8000 41.2000 TC 30 -26.8291 41.1960 7 2 186
1952072S17042 1952 19 SI MM NOT_NAMED 1952-03-23 00:00:00 TS -26.9192 41.1975 main 351 351 O________OP___ jtwc_sh SH181952 -26.9000 41.2000 -1 -26.9000 41.2000 TC 25 -26.9575 41.1925 7 3 0
1952072S17042 1952 19 SI MM NOT_NAMED 1952-03-23 03:00:00 TS -27.0607 41.1976 main 364 364 P________PP___ SH181952 -27.0500 41.2000 -1 -27.0500 41.2000 TC 25 -27.0822 41.1928 7 3 0
1952072S17042 1952 19 SI MM NOT_NAMED 1952-03-23 06:00:00 TS -27.2000 41.2000 main 372 372 O________OO___ jtwc_sh SH181952 -27.2000 41.2000 -1 -27.2000 41.2000 TC 25 -27.2000 41.2000 7 2 0
1952072S17042 1952 19 SI MM NOT_NAMED 1952-03-23 09:00:00 TS -27.3047 41.2009 main 379 379 P________PP___ SH181952 -27.3075 41.1925 -1 -27.3075 41.1925 TC 25 -27.2991 41.2178 7 2 177
1952072S17042 1952 19 SI MM NOT_NAMED 1952-03-23 12:00:00 TS -27.3975 41.2142 main 386 386 O________OP___ jtwc_sh SH181952 -27.4000 41.2000 -1 -27.4000 41.2000 TC 25 -27.3925 41.2425 7 2 165
1952072S17042 1952 19 SI MM NOT_NAMED 1952-03-23 15:00:00 TS -27.4916 41.2570 main 387 387 P________PP___ SH181952 -27.4925 41.2500 -1 -27.4925 41.2500 TC 25 -27.4897 41.2709 7 2 159
1952072S17042 1952 19 SI MM NOT_NAMED 1952-03-23 18:00:00 TS -27.6000 41.3000 main 395 395 O________OO___ jtwc_sh SH181952 -27.6000 41.3000 -1 -27.6000 41.3000 TC 25 -27.6000 41.3000 7 3 171
1952072S17042 1952 19 SI MM NOT_NAMED 1952-03-23 21:00:00 TS -27.7384 41.3091 main 403 403 P________PP___ SH181952 -27.7425 41.3001 -1 -27.7425 41.3001 TC 25 -27.7303 41.3272 7 3 175
1952072S17042 1952 19 SI MM NOT_NAMED 1952-03-24 00:00:00 TS -27.8925 41.3175 main 420 420 O________OP___ jtwc_sh SH181952 -27.9000 41.3000 -1 -27.9000 41.3000 TC 25 -27.8775 41.3524 7 3 172
1952072S17042 1952 19 SI MM NOT_NAMED 1952-03-24 03:00:00 TS -28.0470 41.3505 main 423 423 P________PP___ SH181952 -28.0525 41.3374 -1 -28.0525 41.3374 TC 25 -28.0359 41.3765 7 3 168
1952072S17042 1952 19 SI MM NOT_NAMED 1952-03-24 06:00:00 TS -28.2000 41.4000 main 439 O________OO___ jtwc_sh SH181952 -28.2000 41.4000 -1 -28.2000 41.4000 TC 25 -28.2000 41.4000 7 3 165

IBTrACS Databaseについて

本データベースは、米国NOAAが公開する1842年以降の世界の熱帯低気圧のベストトラックデータアーカイブInternational Best Track Archive for Climate Stewardship (IBTrACS)を、ウェブで閲覧しやすい形式に変換したものです。

最終更新日:2021-10-08